ePrivacy and GPDR Cookie Consent by Cookie Consent
EmailTwitter


Observations de surface / États-Unis / KJFK (74486)

Régions: Québec | Canada | États-Unis | Europe | France | UK | Ailleurs
Station
Affichage
Infos & localisation pour KJFK (74486) | Aide pour décoder les METARs

Observations prises le 2022-05-18 à 07H51 UTC à NEW YORK/JF KENN, NY (KJFK)

Etat du ciel: dégagé.

Température: 14.0 Celsius

Point de rosée: 4.0 Celsius

Humidité relative: 51%

Facteur vent (rafales) 11.

Vents: Nord-ouest à 26 km/h ou 14 noeuds.

Rafale du vent: 39 km/h ou 21 noeuds.

Pression au niveau moyen de la mer: 101.36 kilopascals.

Calage altimétrique: 101.39 kilopascals ou 29.94 pouces de mercure.

Visibilité horizontale: 10.00 milles terrestres ou 16.00 kilomètres.

Observation METAR:

KJFK 180751Z 31014G21KT 10SM CLR 14/04 A2994 RMK AO2 SLP136 T01440044=